sensor_id;sensor_type;location;lat;lon;timestamp;pressure;altitude;pressure_sealevel;temperature;humidity
74336;BME280;62755;-33.398;-70.572;2023-11-19T00:01:07;93279.41;;;19.44;43.58
74336;BME280;62755;-33.398;-70.572;2023-11-19T00:03:35;93284.84;;;19.44;43.55
74336;BME280;62755;-33.398;-70.572;2023-11-19T00:06:07;93285.56;;;19.44;43.49
74336;BME280;62755;-33.398;-70.572;2023-11-19T00:08:38;93289.69;;;19.40;43.33
74336;BME280;62755;-33.398;-70.572;2023-11-19T00:11:07;93296.63;;;19.41;43.60
74336;BME280;62755;-33.398;-70.572;2023-11-19T00:13:37;93295.88;;;19.40;43.69
74336;BME280;62755;-33.398;-70.572;2023-11-19T00:16:08;93302.72;;;19.36;43.66
74336;BME280;62755;-33.398;-70.572;2023-11-19T00:18:39;93308.59;;;19.34;43.90
74336;BME280;62755;-33.398;-70.572;2023-11-19T00:21:10;93296.97;;;19.34;44.01
74336;BME280;62755;-33.398;-70.572;2023-11-19T00:23:39;93297.84;;;19.30;44.13
74336;BME280;62755;-33.398;-70.572;2023-11-19T00:26:09;93305.13;;;19.34;44.40
74336;BME280;62755;-33.398;-70.572;2023-11-19T00:28:39;93303.75;;;19.29;44.60
74336;BME280;62755;-33.398;-70.572;2023-11-19T00:31:10;93304.69;;;19.26;44.73
74336;BME280;62755;-33.398;-70.572;2023-11-19T00:33:39;93303.63;;;19.23;44.92
74336;BME280;62755;-33.398;-70.572;2023-11-19T00:36:10;93310.75;;;19.21;45.33
74336;BME280;62755;-33.398;-70.572;2023-11-19T00:38:40;93304.72;;;19.17;45.48
74336;BME280;62755;-33.398;-70.572;2023-11-19T00:41:09;93304.53;;;19.20;45.18
74336;BME280;62755;-33.398;-70.572;2023-11-19T00:43:39;93303.38;;;19.12;45.73
74336;BME280;62755;-33.398;-70.572;2023-11-19T00:46:08;93307.31;;;19.11;45.97
74336;BME280;62755;-33.398;-70.572;2023-11-19T00:48:38;93299.91;;;19.12;46.01
74336;BME280;62755;-33.398;-70.572;2023-11-19T00:51:11;93308.81;;;19.12;45.90
74336;BME280;62755;-33.398;-70.572;2023-11-19T00:53:42;93312.47;;;19.09;45.60
74336;BME280;62755;-33.398;-70.572;2023-11-19T00:56:12;93314.59;;;19.05;46.02
74336;BME280;62755;-33.398;-70.572;2023-11-19T00:58:42;93312.22;;;18.98;46.56
74336;BME280;62755;-33.398;-70.572;2023-11-19T01:01:14;93311.63;;;18.94;46.60
74336;BME280;62755;-33.398;-70.572;2023-11-19T01:03:43;93316.81;;;18.74;47.27
74336;BME280;62755;-33.398;-70.572;2023-11-19T01:06:14;93315.94;;;18.59;47.69
74336;BME280;62755;-33.398;-70.572;2023-11-19T01:08:44;93309.31;;;18.51;47.88
74336;BME280;62755;-33.398;-70.572;2023-11-19T01:11:20;93299.34;;;18.48;47.87
74336;BME280;62755;-33.398;-70.572;2023-11-19T01:13:50;93311.72;;;18.58;47.55
74336;BME280;62755;-33.398;-70.572;2023-11-19T01:16:19;93304.47;;;18.55;47.53
74336;BME280;62755;-33.398;-70.572;2023-11-19T01:18:49;93325.28;;;18.58;47.36
74336;BME280;62755;-33.398;-70.572;2023-11-19T01:21:21;93318.97;;;18.61;46.98
74336;BME280;62755;-33.398;-70.572;2023-11-19T01:23:50;93325.28;;;18.58;47.36
74336;BME280;62755;-33.398;-70.572;2023-11-19T01:26:20;93321.97;;;18.63;47.21
74336;BME280;62755;-33.398;-70.572;2023-11-19T01:28:49;93320.63;;;18.59;47.53
74336;BME280;62755;-33.398;-70.572;2023-11-19T01:31:19;93331.19;;;18.57;47.34
74336;BME280;62755;-33.398;-70.572;2023-11-19T01:33:49;93330.13;;;18.54;47.73
74336;BME280;62755;-33.398;-70.572;2023-11-19T01:36:20;93330.28;;;18.51;47.85
74336;BME280;62755;-33.398;-70.572;2023-11-19T01:38:50;93330.88;;;18.55;48.30
74336;BME280;62755;-33.398;-70.572;2023-11-19T01:41:19;93330.13;;;18.54;48.47
74336;BME280;62755;-33.398;-70.572;2023-11-19T01:43:49;93319.13;;;18.39;48.80
74336;BME280;62755;-33.398;-70.572;2023-11-19T01:46:18;93315.66;;;18.48;48.38
74336;BME280;62755;-33.398;-70.572;2023-11-19T01:48:49;93322.56;;;18.40;48.77
74336;BME280;62755;-33.398;-70.572;2023-11-19T01:51:22;93329.81;;;18.34;48.94
74336;BME280;62755;-33.398;-70.572;2023-11-19T01:53:51;93333.44;;;18.31;48.89
74336;BME280;62755;-33.398;-70.572;2023-11-19T01:56:21;93341.88;;;18.33;48.15
74336;BME280;62755;-33.398;-70.572;2023-11-19T01:58:51;93333.59;;;18.27;48.47
74336;BME280;62755;-33.398;-70.572;2023-11-19T02:01:22;93334.94;;;18.23;48.92
74336;BME280;62755;-33.398;-70.572;2023-11-19T02:03:52;93329.53;;;18.23;49.16
74336;BME280;62755;-33.398;-70.572;2023-11-19T02:06:23;93329.53;;;18.23;49.08
74336;BME280;62755;-33.398;-70.572;2023-11-19T02:08:53;93324.84;;;18.23;48.10
74336;BME280;62755;-33.398;-70.572;2023-11-19T02:11:23;93338.28;;;18.27;47.63
74336;BME280;62755;-33.398;-70.572;2023-11-19T02:13:56;93332.53;;;18.25;47.92
74336;BME280;62755;-33.398;-70.572;2023-11-19T02:16:26;93336.19;;;18.22;48.33
74336;BME280;62755;-33.398;-70.572;2023-11-19T02:18:55;93293.03;;;17.97;48.68
74336;BME280;62755;-33.398;-70.572;2023-11-19T02:21:26;93332.41;;;18.19;48.75
74336;BME280;62755;-33.398;-70.572;2023-11-19T02:23:56;93327.56;;;18.14;49.74
74336;BME280;62755;-33.398;-70.572;2023-11-19T02:26:30;93322.91;;;18.06;49.55
74336;BME280;62755;-33.398;-70.572;2023-11-19T02:29:04;93321.69;;;17.98;50.18
74336;BME280;62755;-33.398;-70.572;2023-11-19T02:31:34;93319.88;;;17.86;50.19
74336;BME280;62755;-33.398;-70.572;2023-11-19T02:34:04;93323.66;;;17.88;50.22
74336;BME280;62755;-33.398;-70.572;2023-11-19T02:36:33;93320.75;;;17.83;50.33
74336;BME280;62755;-33.398;-70.572;2023-11-19T02:39:03;93317.75;;;17.81;50.36
74336;BME280;62755;-33.398;-70.572;2023-11-19T02:41:37;93308.84;;;17.71;50.69
74336;BME280;62755;-33.398;-70.572;2023-11-19T02:44:08;93281.88;;;17.68;50.14
74336;BME280;62755;-33.398;-70.572;2023-11-19T02:46:38;93311.72;;;17.77;50.17
74336;BME280;62755;-33.398;-70.572;2023-11-19T02:49:09;93304.78;;;17.76;50.18
74336;BME280;62755;-33.398;-70.572;2023-11-19T02:51:38;93302.69;;;17.71;50.77
74336;BME280;62755;-33.398;-70.572;2023-11-19T02:54:08;93299.50;;;17.72;50.08
74336;BME280;62755;-33.398;-70.572;2023-11-19T02:56:37;93298.75;;;17.72;50.27
74336;BME280;62755;-33.398;-70.572;2023-11-19T02:59:11;93306.00;;;17.75;50.57
74336;BME280;62755;-33.398;-70.572;2023-11-19T03:01:53;93303.91;;;17.79;50.37
74336;BME280;62755;-33.398;-70.572;2023-11-19T03:04:23;93296.19;;;17.77;50.59
74336;BME280;62755;-33.398;-70.572;2023-11-19T03:06:52;93295.75;;;17.79;50.05
74336;BME280;62755;-33.398;-70.572;2023-11-19T03:09:22;93293.94;;;17.76;50.64
74336;BME280;62755;-33.398;-70.572;2023-11-19T03:11:51;93300.88;;;17.77;50.55
74336;BME280;62755;-33.398;-70.572;2023-11-19T03:14:27;93290.63;;;17.81;50.54
74336;BME280;62755;-33.398;-70.572;2023-11-19T03:17:03;93290.03;;;17.77;51.00
74336;BME280;62755;-33.398;-70.572;2023-11-19T03:19:33;93302.97;;;17.82;51.00
74336;BME280;62755;-33.398;-70.572;2023-11-19T03:22:02;93289.44;;;17.73;51.15
74336;BME280;62755;-33.398;-70.572;2023-11-19T03:24:32;93303.56;;;17.68;50.90
74336;BME280;62755;-33.398;-70.572;2023-11-19T03:27:01;93294.84;;;17.73;50.15
74336;BME280;62755;-33.398;-70.572;2023-11-19T03:29:32;93295.72;;;17.70;49.69
74336;BME280;62755;-33.398;-70.572;2023-11-19T03:32:02;93293.31;;;17.72;49.26
74336;BME280;62755;-33.398;-70.572;2023-11-19T03:34:31;93296.03;;;17.72;50.25
74336;BME280;62755;-33.398;-70.572;2023-11-19T03:37:01;93300.28;;;17.73;49.74
74336;BME280;62755;-33.398;-70.572;2023-11-19T03:39:31;93292.75;;;17.77;48.68
74336;BME280;62755;-33.398;-70.572;2023-11-19T03:42:00;93289.69;;;17.66;48.79
74336;BME280;62755;-33.398;-70.572;2023-11-19T03:44:32;93281.25;;;17.64;48.66
74336;BME280;62755;-33.398;-70.572;2023-11-19T03:47:01;93278.56;;;17.73;48.02
74336;BME280;62755;-33.398;-70.572;2023-11-19T03:49:30;93280.50;;;17.63;48.31
74336;BME280;62755;-33.398;-70.572;2023-11-19T03:52:00;93279.63;;;17.66;48.69
74336;BME280;62755;-33.398;-70.572;2023-11-19T03:54:29;93277.03;;;17.53;49.18
74336;BME280;62755;-33.398;-70.572;2023-11-19T03:56:59;93274.91;;;17.48;49.04
74336;BME280;62755;-33.398;-70.572;2023-11-19T03:59:32;93274.00;;;17.51;48.49
74336;BME280;62755;-33.398;-70.572;2023-11-19T04:02:01;93269.50;;;17.48;48.66
74336;BME280;62755;-33.398;-70.572;2023-11-19T04:04:31;93263.44;;;17.44;48.76
74336;BME280;62755;-33.398;-70.572;2023-11-19T04:07:00;93267.22;;;17.47;48.39
74336;BME280;62755;-33.398;-70.572;2023-11-19T04:09:35;93266.72;;;17.39;48.79
74336;BME280;62755;-33.398;-70.572;2023-11-19T04:12:07;93258.78;;;17.45;48.59
74336;BME280;62755;-33.398;-70.572;2023-11-19T04:14:39;93249.88;;;17.35;48.94
74336;BME280;62755;-33.398;-70.572;2023-11-19T04:17:08;93247.44;;;17.19;49.21
74336;BME280;62755;-33.398;-70.572;2023-11-19T04:19:38;93245.66;;;17.25;49.33
74336;BME280;62755;-33.398;-70.572;2023-11-19T04:22:08;93229.50;;;17.22;49.62
74336;BME280;62755;-33.398;-70.572;2023-11-19T04:24:41;93242.91;;;17.16;49.58
74336;BME280;62755;-33.398;-70.572;2023-11-19T04:27:11;93233.84;;;17.10;49.72
74336;BME280;62755;-33.398;-70.572;2023-11-19T04:29:42;93236.88;;;17.12;49.75
74336;BME280;62755;-33.398;-70.572;2023-11-19T04:32:12;93230.84;;;17.08;49.44
74336;BME280;62755;-33.398;-70.572;2023-11-19T04:34:42;93224.22;;;17.18;49.17
74336;BME280;62755;-33.398;-70.572;2023-11-19T04:37:11;93223.63;;;17.14;48.68
74336;BME280;62755;-33.398;-70.572;2023-11-19T04:39:41;93222.75;;;17.17;48.48
74336;BME280;62755;-33.398;-70.572;2023-11-19T04:42:10;93222.41;;;17.06;48.55
74336;BME280;62755;-33.398;-70.572;2023-11-19T04:44:41;93223.56;;;16.96;48.92
74336;BME280;62755;-33.398;-70.572;2023-11-19T04:47:11;93213.97;;;17.04;49.13
74336;BME280;62755;-33.398;-70.572;2023-11-19T04:49:41;93219.13;;;17.11;48.50
74336;BME280;62755;-33.398;-70.572;2023-11-19T04:52:11;93211.91;;;17.26;48.79
74336;BME280;62755;-33.398;-70.572;2023-11-19T04:54:44;93212.78;;;17.14;49.11
74336;BME280;62755;-33.398;-70.572;2023-11-19T04:57:13;93214.47;;;17.21;48.21
74336;BME280;62755;-33.398;-70.572;2023-11-19T04:59:44;93206.19;;;17.24;47.49
74336;BME280;62755;-33.398;-70.572;2023-11-19T05:02:14;93205.72;;;17.17;47.77
74336;BME280;62755;-33.398;-70.572;2023-11-19T05:04:44;93206.72;;;16.92;47.98
74336;BME280;62755;-33.398;-70.572;2023-11-19T05:07:13;93201.03;;;16.99;48.60
74336;BME280;62755;-33.398;-70.572;2023-11-19T05:09:43;93199.22;;;17.05;49.04
74336;BME280;62755;-33.398;-70.572;2023-11-19T05:12:12;93203.63;;;17.12;49.32
74336;BME280;62755;-33.398;-70.572;2023-11-19T05:14:43;93207.09;;;17.21;48.93
74336;BME280;62755;-33.398;-70.572;2023-11-19T05:17:17;93189.34;;;17.29;49.08
74336;BME280;62755;-33.398;-70.572;2023-11-19T05:19:47;93196.56;;;17.32;48.81
74336;BME280;62755;-33.398;-70.572;2023-11-19T05:22:16;93198.97;;;17.30;49.11
74336;BME280;62755;-33.398;-70.572;2023-11-19T05:24:47;93197.59;;;17.26;48.87
74336;BME280;62755;-33.398;-70.572;2023-11-19T05:27:17;93198.03;;;17.24;49.29
74336;BME280;62755;-33.398;-70.572;2023-11-19T05:29:48;93191.72;;;17.18;49.33
74336;BME280;62755;-33.398;-70.572;2023-11-19T05:32:17;93187.81;;;17.19;48.42
74336;BME280;62755;-33.398;-70.572;2023-11-19T05:34:47;93193.50;;;17.12;48.92
74336;BME280;62755;-33.398;-70.572;2023-11-19T05:37:16;93190.06;;;17.21;48.55
74336;BME280;62755;-33.398;-70.572;2023-11-19T05:39:46;93184.66;;;17.12;49.18
74336;BME280;62755;-33.398;-70.572;2023-11-19T05:42:15;93180.22;;;16.96;48.34
74336;BME280;62755;-33.398;-70.572;2023-11-19T05:44:44;93175.97;;;16.77;48.79
74336;BME280;62755;-33.398;-70.572;2023-11-19T05:47:16;93186.44;;;16.57;49.55
74336;BME280;62755;-33.398;-70.572;2023-11-19T05:49:45;93183.16;;;16.62;50.01
74336;BME280;62755;-33.398;-70.572;2023-11-19T05:52:15;93185.28;;;16.67;50.05
74336;BME280;62755;-33.398;-70.572;2023-11-19T05:54:44;93180.91;;;16.60;50.15
74336;BME280;62755;-33.398;-70.572;2023-11-19T05:57:18;93183.19;;;16.71;50.53
74336;BME280;62755;-33.398;-70.572;2023-11-19T05:59:52;93187.41;;;16.72;51.48
74336;BME280;62755;-33.398;-70.572;2023-11-19T06:02:23;93179.59;;;16.74;50.75
74336;BME280;62755;-33.398;-70.572;2023-11-19T06:04:54;93174.78;;;16.78;50.77
74336;BME280;62755;-33.398;-70.572;2023-11-19T06:07:23;93172.84;;;16.88;50.92
74336;BME280;62755;-33.398;-70.572;2023-11-19T06:09:52;93166.91;;;16.62;50.21
74336;BME280;62755;-33.398;-70.572;2023-11-19T06:12:22;93161.78;;;16.55;50.68
74336;BME280;62755;-33.398;-70.572;2023-11-19T06:14:51;93163.56;;;16.49;51.13
74336;BME280;62755;-33.398;-70.572;2023-11-19T06:17:22;93166.59;;;16.51;51.10
74336;BME280;62755;-33.398;-70.572;2023-11-19T06:19:52;93167.44;;;16.48;51.32
74336;BME280;62755;-33.398;-70.572;2023-11-19T06:22:21;93158.69;;;16.35;51.82
74336;BME280;62755;-33.398;-70.572;2023-11-19T06:24:50;93154.63;;;16.39;52.25
74336;BME280;62755;-33.398;-70.572;2023-11-19T06:27:20;93158.69;;;16.35;52.02
74336;BME280;62755;-33.398;-70.572;2023-11-19T06:29:50;93149.63;;;16.29;52.53
74336;BME280;62755;-33.398;-70.572;2023-11-19T06:32:20;93151.75;;;16.34;52.74
74336;BME280;62755;-33.398;-70.572;2023-11-19T06:34:51;93155.31;;;16.22;52.46
74336;BME280;62755;-33.398;-70.572;2023-11-19T06:37:20;93148.41;;;16.21;52.86
74336;BME280;62755;-33.398;-70.572;2023-11-19T06:39:50;93144.97;;;16.29;52.28
74336;BME280;62755;-33.398;-70.572;2023-11-19T06:42:19;93137.03;;;16.35;51.88
74336;BME280;62755;-33.398;-70.572;2023-11-19T06:44:49;93139.44;;;16.33;52.10
74336;BME280;62755;-33.398;-70.572;2023-11-19T06:47:18;93131.25;;;16.24;51.96
74336;BME280;62755;-33.398;-70.572;2023-11-19T06:49:47;93129.16;;;16.19;52.29
74336;BME280;62755;-33.398;-70.572;2023-11-19T06:52:19;93129.47;;;16.30;51.84
74336;BME280;62755;-33.398;-70.572;2023-11-19T06:54:48;93133.72;;;16.40;51.84
74336;BME280;62755;-33.398;-70.572;2023-11-19T06:57:17;93125.03;;;16.45;51.52
74336;BME280;62755;-33.398;-70.572;2023-11-19T06:59:47;93127.78;;;16.54;50.96
74336;BME280;62755;-33.398;-70.572;2023-11-19T07:02:16;93131.69;;;16.53;51.08
74336;BME280;62755;-33.398;-70.572;2023-11-19T07:04:46;93127.78;;;16.54;51.25
74336;BME280;62755;-33.398;-70.572;2023-11-19T07:07:17;93126.75;;;16.60;50.81
74336;BME280;62755;-33.398;-70.572;2023-11-19T07:09:47;93129.31;;;16.64;51.09
74336;BME280;62755;-33.398;-70.572;2023-11-19T07:12:16;93126.91;;;16.66;50.87
74336;BME280;62755;-33.398;-70.572;2023-11-19T07:14:45;93119.25;;;16.64;50.51
74336;BME280;62755;-33.398;-70.572;2023-11-19T07:17:15;93122.69;;;16.65;50.74
74336;BME280;62755;-33.398;-70.572;2023-11-19T07:19:44;93120.28;;;16.49;51.53
74336;BME280;62755;-33.398;-70.572;2023-11-19T07:22:14;93122.28;;;16.36;50.84
74336;BME280;62755;-33.398;-70.572;2023-11-19T07:24:46;93128.47;;;16.36;50.84
74336;BME280;62755;-33.398;-70.572;2023-11-19T07:27:16;93132.50;;;16.32;51.04
74336;BME280;62755;-33.398;-70.572;2023-11-19T07:29:45;93134.81;;;16.12;50.86
74336;BME280;62755;-33.398;-70.572;2023-11-19T07:32:15;93134.09;;;16.20;50.76
74336;BME280;62755;-33.398;-70.572;2023-11-19T07:34:45;93130.59;;;16.02;50.33
74336;BME280;62755;-33.398;-70.572;2023-11-19T07:37:16;93132.06;;;16.03;50.57
74336;BME280;62755;-33.398;-70.572;2023-11-19T07:39:47;93129.66;;;15.96;50.27
74336;BME280;62755;-33.398;-70.572;2023-11-19T07:42:17;93118.25;;;16.01;50.44
74336;BME280;62755;-33.398;-70.572;2023-11-19T07:44:46;93123.66;;;16.01;50.12
74336;BME280;62755;-33.398;-70.572;2023-11-19T07:47:16;93126.66;;;16.03;50.25
74336;BME280;62755;-33.398;-70.572;2023-11-19T07:49:45;93123.03;;;15.97;50.13
74336;BME280;62755;-33.398;-70.572;2023-11-19T07:52:15;93127.19;;;15.89;50.84
74336;BME280;62755;-33.398;-70.572;2023-11-19T07:54:46;93123.94;;;15.94;50.80
74336;BME280;62755;-33.398;-70.572;2023-11-19T07:57:15;93124.41;;;16.01;50.95
74336;BME280;62755;-33.398;-70.572;2023-11-19T07:59:45;93119.28;;;15.72;50.90
74336;BME280;62755;-33.398;-70.572;2023-11-19T08:02:14;93114.78;;;15.69;51.36
74336;BME280;62755;-33.398;-70.572;2023-11-19T08:04:43;93116.47;;;15.76;52.00
74336;BME280;62755;-33.398;-70.572;2023-11-19T08:07:13;93105.38;;;15.52;52.87
74336;BME280;62755;-33.398;-70.572;2023-11-19T08:09:43;93115.91;;;15.59;53.43
74336;BME280;62755;-33.398;-70.572;2023-11-19T08:12:14;93112.38;;;15.71;54.36
74336;BME280;62755;-33.398;-70.572;2023-11-19T08:14:44;93097.41;;;15.79;54.17
74336;BME280;62755;-33.398;-70.572;2023-11-19T08:17:13;93113.97;;;15.91;54.80
74336;BME280;62755;-33.398;-70.572;2023-11-19T08:19:43;93119.44;;;16.00;54.14
74336;BME280;62755;-33.398;-70.572;2023-11-19T08:22:12;93121.53;;;15.96;52.88
74336;BME280;62755;-33.398;-70.572;2023-11-19T08:24:42;93117.31;;;15.95;52.62
74336;BME280;62755;-33.398;-70.572;2023-11-19T08:27:13;93116.13;;;15.96;53.03
74336;BME280;62755;-33.398;-70.572;2023-11-19T08:29:42;93110.97;;;15.89;52.95
74336;BME280;62755;-33.398;-70.572;2023-11-19T08:32:12;93106.53;;;16.04;52.33
74336;BME280;62755;-33.398;-70.572;2023-11-19T08:34:42;93119.13;;;15.98;53.17
74336;BME280;62755;-33.398;-70.572;2023-11-19T08:37:11;93111.34;;;16.00;51.97
74336;BME280;62755;-33.398;-70.572;2023-11-19T08:39:41;93088.72;;;15.84;51.60
74336;BME280;62755;-33.398;-70.572;2023-11-19T08:42:10;93105.94;;;16.09;51.64
74336;BME280;62755;-33.398;-70.572;2023-11-19T08:44:41;93109.44;;;16.18;51.67
74336;BME280;62755;-33.398;-70.572;2023-11-19T08:47:13;93117.69;;;16.15;52.17
74336;BME280;62755;-33.398;-70.572;2023-11-19T08:49:43;93108.72;;;16.27;52.18
74336;BME280;62755;-33.398;-70.572;2023-11-19T08:52:12;93111.47;;;16.36;52.86
74336;BME280;62755;-33.398;-70.572;2023-11-19T08:54:43;93107.81;;;16.30;52.18
74336;BME280;62755;-33.398;-70.572;2023-11-19T08:57:13;93112.00;;;16.22;50.93
74336;BME280;62755;-33.398;-70.572;2023-11-19T08:59:44;93106.84;;;16.06;50.26
74336;BME280;62755;-33.398;-70.572;2023-11-19T09:02:14;93103.56;;;16.11;50.26
74336;BME280;62755;-33.398;-70.572;2023-11-19T09:04:43;93110.78;;;16.14;50.13
74336;BME280;62755;-33.398;-70.572;2023-11-19T09:07:12;93104.16;;;16.06;49.96
74336;BME280;62755;-33.398;-70.572;2023-11-19T09:09:42;93113.06;;;16.15;49.74
74336;BME280;62755;-33.398;-70.572;2023-11-19T09:12:11;93107.19;;;16.17;49.47
74336;BME280;62755;-33.398;-70.572;2023-11-19T09:14:43;93106.53;;;16.04;48.68
74336;BME280;62755;-33.398;-70.572;2023-11-19T09:17:12;93109.41;;;16.09;48.73
74336;BME280;62755;-33.398;-70.572;2023-11-19T09:19:42;93107.94;;;15.87;48.55
74336;BME280;62755;-33.398;-70.572;2023-11-19T09:22:12;93101.38;;;15.97;48.24
74336;BME280;62755;-33.398;-70.572;2023-11-19T09:24:42;93107.44;;;16.10;47.99
74336;BME280;62755;-33.398;-70.572;2023-11-19T09:27:12;93104.19;;;16.24;48.20
74336;BME280;62755;-33.398;-70.572;2023-11-19T09:29:41;93107.81;;;16.30;47.89
74336;BME280;62755;-33.398;-70.572;2023-11-19T09:32:14;93104.56;;;16.35;48.29
74336;BME280;62755;-33.398;-70.572;2023-11-19T09:34:44;93101.09;;;16.43;47.37
74336;BME280;62755;-33.398;-70.572;2023-11-19T09:37:13;93106.97;;;16.42;47.17
74336;BME280;62755;-33.398;-70.572;2023-11-19T09:39:43;93113.91;;;16.43;47.07
74336;BME280;62755;-33.398;-70.572;2023-11-19T09:42:13;93106.66;;;16.40;47.24
74336;BME280;62755;-33.398;-70.572;2023-11-19T09:44:43;93102.97;;;16.16;47.29
74336;BME280;62755;-33.398;-70.572;2023-11-19T09:47:14;93117.09;;;16.20;47.90
74336;BME280;62755;-33.398;-70.572;2023-11-19T09:49:46;93110.22;;;16.19;47.63
74336;BME280;62755;-33.398;-70.572;2023-11-19T09:52:15;93104.47;;;16.17;47.94
74336;BME280;62755;-33.398;-70.572;2023-11-19T09:54:44;93113.16;;;16.12;48.39
74336;BME280;62755;-33.398;-70.572;2023-11-19T09:57:15;93108.66;;;16.09;48.16
74336;BME280;62755;-33.398;-70.572;2023-11-19T09:59:46;93106.53;;;16.04;48.34
74336;BME280;62755;-33.398;-70.572;2023-11-19T10:02:19;93106.47;;;15.86;48.93
74336;BME280;62755;-33.398;-70.572;2023-11-19T10:04:49;93108.47;;;15.72;49.16
74336;BME280;62755;-33.398;-70.572;2023-11-19T10:07:20;93108.09;;;15.83;48.75
74336;BME280;62755;-33.398;-70.572;2023-11-19T10:09:49;93108.72;;;15.87;48.94
74336;BME280;62755;-33.398;-70.572;2023-11-19T10:12:19;93116.97;;;15.83;48.69
74336;BME280;62755;-33.398;-70.572;2023-11-19T10:14:48;93108.31;;;15.98;48.58
74336;BME280;62755;-33.398;-70.572;2023-11-19T10:17:20;93113.44;;;16.05;48.78
74336;BME280;62755;-33.398;-70.572;2023-11-19T10:19:49;93126.28;;;16.13;48.28
74336;BME280;62755;-33.398;-70.572;2023-11-19T10:22:19;93111.28;;;16.21;48.10
74336;BME280;62755;-33.398;-70.572;2023-11-19T10:24:48;93117.16;;;16.29;48.04
74336;BME280;62755;-33.398;-70.572;2023-11-19T10:27:17;93116.88;;;16.36;47.99
74336;BME280;62755;-33.398;-70.572;2023-11-19T10:29:50;93118.25;;;16.40;47.71
74336;BME280;62755;-33.398;-70.572;2023-11-19T10:32:21;93122.22;;;16.48;47.89
74336;BME280;62755;-33.398;-70.572;2023-11-19T10:34:50;93120.56;;;16.51;47.96
74336;BME280;62755;-33.398;-70.572;2023-11-19T10:37:29;93122.63;;;16.47;48.14
74336;BME280;62755;-33.398;-70.572;2023-11-19T10:39:59;93128.78;;;16.47;48.13
74336;BME280;62755;-33.398;-70.572;2023-11-19T10:42:28;93128.31;;;16.40;48.40
74336;BME280;62755;-33.398;-70.572;2023-11-19T10:44:57;93133.09;;;16.36;48.72
74336;BME280;62755;-33.398;-70.572;2023-11-19T10:47:29;93152.03;;;16.27;49.16
74336;BME280;62755;-33.398;-70.572;2023-11-19T10:49:59;93151.75;;;16.34;48.80
74336;BME280;62755;-33.398;-70.572;2023-11-19T10:52:29;93153.34;;;16.22;49.26
74336;BME280;62755;-33.398;-70.572;2023-11-19T10:55:00;93160.00;;;16.30;49.71
74336;BME280;62755;-33.398;-70.572;2023-11-19T10:57:35;93159.56;;;16.32;50.37
74336;BME280;62755;-33.398;-70.572;2023-11-19T11:00:07;93159.84;;;16.25;50.61
74336;BME280;62755;-33.398;-70.572;2023-11-19T11:02:41;93146.69;;;16.14;50.40
74336;BME280;62755;-33.398;-70.572;2023-11-19T11:05:14;93156.81;;;16.23;51.11
74336;BME280;62755;-33.398;-70.572;2023-11-19T11:07:45;93161.91;;;16.21;50.72
74336;BME280;62755;-33.398;-70.572;2023-11-19T11:10:15;93162.56;;;16.34;50.75
74336;BME280;62755;-33.398;-70.572;2023-11-19T11:12:47;93161.25;;;16.38;50.63
74336;BME280;62755;-33.398;-70.572;2023-11-19T11:15:19;93166.19;;;16.40;51.15
74336;BME280;62755;-33.398;-70.572;2023-11-19T11:17:51;93165.94;;;16.47;51.17
74336;BME280;62755;-33.398;-70.572;2023-11-19T11:20:22;93177.69;;;16.53;50.96
74336;BME280;62755;-33.398;-70.572;2023-11-19T11:22:59;93175.91;;;16.59;50.87
74336;BME280;62755;-33.398;-70.572;2023-11-19T11:25:40;93170.56;;;16.68;50.29
74336;BME280;62755;-33.398;-70.572;2023-11-19T11:28:28;93169.03;;;16.67;50.61
74336;BME280;62755;-33.398;-70.572;2023-11-19T11:31:12;93165.13;;;16.68;49.92
74336;BME280;62755;-33.398;-70.572;2023-11-19T11:34:05;93173.53;;;16.61;49.98
74336;BME280;62755;-33.398;-70.572;2023-11-19T11:36:43;93175.22;;;16.67;49.71
74336;BME280;62755;-33.398;-70.572;2023-11-19T11:39:17;93175.81;;;16.72;49.62
74336;BME280;62755;-33.398;-70.572;2023-11-19T11:42:34;93177.66;;;16.84;49.07
74336;BME280;62755;-33.398;-70.572;2023-11-19T11:45:05;93177.94;;;16.77;49.17
74336;BME280;62755;-33.398;-70.572;2023-11-19T11:48:15;93170.00;;;16.82;48.92
74336;BME280;62755;-33.398;-70.572;2023-11-19T11:50:53;93167.59;;;16.84;48.51
74336;BME280;62755;-33.398;-70.572;2023-11-19T11:53:23;93178.72;;;16.86;48.94
74336;BME280;62755;-33.398;-70.572;2023-11-19T11:55:57;93179.03;;;16.88;48.84
74336;BME280;62755;-33.398;-70.572;2023-11-19T11:58:35;93168.66;;;16.96;48.68
74336;BME280;62755;-33.398;-70.572;2023-11-19T12:01:06;93179.34;;;16.99;48.82
74336;BME280;62755;-33.398;-70.572;2023-11-19T12:03:36;93185.06;;;17.10;48.50
74336;BME280;62755;-33.398;-70.572;2023-11-19T12:06:08;93183.88;;;17.20;48.71
74336;BME280;62755;-33.398;-70.572;2023-11-19T12:08:40;93169.44;;;17.23;48.18
74336;BME280;62755;-33.398;-70.572;2023-11-19T12:11:11;93174.25;;;17.28;48.44
74336;BME280;62755;-33.398;-70.572;2023-11-19T12:13:57;93169.44;;;17.32;48.10
74336;BME280;62755;-33.398;-70.572;2023-11-19T12:16:29;93167.63;;;17.38;48.32
74336;BME280;62755;-33.398;-70.572;2023-11-19T12:19:08;93172.31;;;17.47;48.54
74336;BME280;62755;-33.398;-70.572;2023-11-19T12:21:47;93166.78;;;17.50;48.32
74336;BME280;62755;-33.398;-70.572;2023-11-19T12:24:17;93181.53;;;17.59;48.03
74336;BME280;62755;-33.398;-70.572;2023-11-19T12:26:48;93170.69;;;17.59;48.15
74336;BME280;62755;-33.398;-70.572;2023-11-19T12:29:19;93173.09;;;17.57;48.83
74336;BME280;62755;-33.398;-70.572;2023-11-19T12:31:54;93182.75;;;17.67;48.86
74336;BME280;62755;-33.398;-70.572;2023-11-19T12:34:24;93177.00;;;17.74;48.40
74336;BME280;62755;-33.398;-70.572;2023-11-19T12:36:55;93173.97;;;17.72;48.57
74336;BME280;62755;-33.398;-70.572;2023-11-19T12:39:25;93179.72;;;17.65;49.18
74336;BME280;62755;-33.398;-70.572;2023-11-19T12:41:54;93176.41;;;17.79;48.51
74336;BME280;62755;-33.398;-70.572;2023-11-19T12:44:26;93175.63;;;17.87;48.96
74336;BME280;62755;-33.398;-70.572;2023-11-19T12:47:05;93178.47;;;17.93;48.77
74336;BME280;62755;-33.398;-70.572;2023-11-19T12:49:35;93177.75;;;17.92;48.79